Time;durP1;ratioP1;P1;durP2;ratioP2;P2;SDS_P1;SDS_P2;PMS_P1;PMS_P2;Temp;Humidity;BMP_temperature;BMP_pressure;BME280_temperature;BME280_humidity;BME280_pressure;Samples;Min_cycle;Max_cycle;Signal;HPM_P1;HPM_P2
2023/01/26 00:00:50;;;;;;;36.13;12.68;;;;;;;;;;5022371;28;20057;-49
2023/01/26 00:03:17;;;;;;;34.60;13.27;;;;;;;;;;5034767;28;20107;-52
2023/01/26 00:05:44;;;;;;;36.45;14.15;;;;;;;;;;5029022;28;20450;-49
2023/01/26 00:08:12;;;;;;;36.33;13.73;;;;;;;;;;5023116;28;20057;-51
2023/01/26 00:10:41;;;;;;;38.78;13.85;;;;;;;;;;5031221;28;20073;-50
2023/01/26 00:13:08;;;;;;;31.65;13.02;;;;;;;;;;5015083;28;20053;-48
2023/01/26 00:15:37;;;;;;;43.58;15.27;;;;;;;;;;5015581;28;20050;-50
2023/01/26 00:18:04;;;;;;;35.22;12.77;;;;;;;;;;5014738;28;20057;-51
2023/01/26 00:20:31;;;;;;;36.50;12.80;;;;;;;;;;5016783;28;20423;-49
2023/01/26 00:22:58;;;;;;;37.97;13.50;;;;;;;;;;5034369;28;20064;-53
2023/01/26 00:25:25;;;;;;;38.13;13.82;;;;;;;;;;5039803;28;20049;-52
2023/01/26 00:27:51;;;;;;;35.47;12.88;;;;;;;;;;5022826;28;20203;-48
2023/01/26 00:30:19;;;;;;;34.05;12.73;;;;;;;;;;5030272;28;20050;-54
2023/01/26 00:32:47;;;;;;;33.78;11.55;;;;;;;;;;5021469;28;20090;-52
2023/01/26 00:35:14;;;;;;;32.42;11.70;;;;;;;;;;5022336;28;20049;-51
2023/01/26 00:37:41;;;;;;;35.85;12.98;;;;;;;;;;5038822;28;20053;-52
2023/01/26 00:40:10;;;;;;;34.58;12.35;;;;;;;;;;5033880;28;20045;-54
2023/01/26 00:42:38;;;;;;;37.45;11.82;;;;;;;;;;5021131;28;20054;-52
2023/01/26 00:45:06;;;;;;;34.50;11.55;;;;;;;;;;5021797;28;20502;-48
2023/01/26 00:47:35;;;;;;;38.30;13.18;;;;;;;;;;5037072;28;20054;-52
2023/01/26 00:50:06;;;;;;;33.17;13.63;;;;;;;;;;5040885;28;20049;-53
2023/01/26 00:52:32;;;;;;;;;;;;;;;;;;5027850;28;20050;-51
2023/01/26 00:54:59;;;;;;;36.10;12.20;;;;;;;;;;5021909;28;19921;-49
2023/01/26 00:57:26;;;;;;;35.03;12.73;;;;;;;;;;5056118;22;20037;-84
2023/01/26 00:59:52;;;;;;;34.42;12.85;;;;;;;;;;5042016;28;20073;-84
2023/01/26 01:02:19;;;;;;;37.85;12.80;;;;;;;;;;5033469;28;20102;-86
2023/01/26 01:04:46;;;;;;;34.05;13.00;;;;;;;;;;5036382;28;20053;-84
2023/01/26 01:07:14;;;;;;;34.63;12.00;;;;;;;;;;5043228;28;20088;-84
2023/01/26 01:09:40;;;;;;;29.05;11.98;;;;;;;;;;5021116;28;20048;-85
2023/01/26 01:16:06;;;;;;;34.92;11.55;;;;;;;;;;5015708;28;20048;-84
2023/01/26 01:18:32;;;;;;;33.35;13.35;;;;;;;;;;5015466;28;20060;-84
2023/01/26 01:20:59;;;;;;;34.55;13.70;;;;;;;;;;5016887;28;20105;-84
2023/01/26 01:23:29;;;;;;;36.80;12.93;;;;;;;;;;5014907;28;20188;-85
2023/01/26 01:26:01;;;;;;;31.23;12.07;;;;;;;;;;5015089;28;20136;-85
2023/01/26 01:28:27;;;;;;;30.20;12.52;;;;;;;;;;5011988;28;20050;-85
2023/01/26 01:30:54;;;;;;;31.98;12.00;;;;;;;;;;5013044;28;20132;-84
2023/01/26 01:33:22;;;;;;;29.55;12.32;;;;;;;;;;5014559;28;20041;-85
2023/01/26 01:35:57;;;;;;;29.60;11.35;;;;;;;;;;5013993;28;20128;-84
2023/01/26 01:38:23;;;;;;;31.27;13.15;;;;;;;;;;5013861;28;20050;-84
2023/01/26 01:40:51;;;;;;;35.35;12.38;;;;;;;;;;5014538;28;20053;-84
2023/01/26 01:43:18;;;;;;;34.42;12.23;;;;;;;;;;5014265;28;20050;-84
2023/01/26 01:45:46;;;;;;;35.85;12.52;;;;;;;;;;5014254;28;20166;-84
2023/01/26 01:48:21;;;;;;;31.33;12.15;;;;;;;;;;5013956;28;20129;-84
2023/01/26 01:50:49;;;;;;;33.13;12.45;;;;;;;;;;5014465;28;20125;-84
2023/01/26 01:53:23;;;;;;;32.83;12.57;;;;;;;;;;5014584;28;20049;-84
2023/01/26 01:55:55;;;;;;;33.63;12.05;;;;;;;;;;5014254;28;20532;-84
2023/01/26 01:58:22;;;;;;;38.13;11.85;;;;;;;;;;5014026;28;20419;-84
2023/01/26 02:00:49;;;;;;;38.00;12.55;;;;;;;;;;5014898;28;20054;-84
2023/01/26 02:03:20;;;;;;;32.15;11.45;;;;;;;;;;5014356;28;20071;-84
2023/01/26 02:05:51;;;;;;;;;;;;;;;;;;5026517;28;20046;-84
2023/01/26 02:08:18;;;;;;;;;;;;;;;;;;5035723;28;20390;-85
2023/01/26 02:10:49;;;;;;;34.80;12.38;;;;;;;;;;5034892;28;19927;-86
2023/01/26 02:13:18;;;;;;;34.92;12.25;;;;;;;;;;5033234;28;20132;-85
2023/01/26 02:15:45;;;;;;;36.67;12.23;;;;;;;;;;5030411;28;20058;-85
2023/01/26 02:18:12;;;;;;;33.40;12.25;;;;;;;;;;5013999;28;20058;-85
2023/01/26 02:20:44;;;;;;;33.05;11.57;;;;;;;;;;5017320;28;20070;-86
2023/01/26 02:23:26;;;;;;;31.38;12.05;;;;;;;;;;5017737;28;20137;-86
2023/01/26 02:26:10;;;;;;;34.28;12.40;;;;;;;;;;5017738;28;20049;-85
2023/01/26 02:28:37;;;;;;;28.75;10.93;;;;;;;;;;5017461;28;20050;-85
2023/01/26 02:31:04;;;;;;;31.95;11.23;;;;;;;;;;5017249;28;20523;-85
2023/01/26 02:33:32;;;;;;;35.38;10.95;;;;;;;;;;5016552;28;20050;-86
2023/01/26 02:36:01;;;;;;;26.42;10.95;;;;;;;;;;5017599;28;20045;-85
2023/01/26 02:38:40;;;;;;;29.75;11.57;;;;;;;;;;5016794;28;20061;-85
2023/01/26 02:41:10;;;;;;;33.05;13.13;;;;;;;;;;5017793;28;20532;-85
2023/01/26 02:43:36;;;;;;;30.35;11.63;;;;;;;;;;5019998;28;20057;-86
2023/01/26 02:46:03;;;;;;;32.63;11.68;;;;;;;;;;5031316;28;20050;-85
2023/01/26 02:51:14;;;;;;;28.80;11.75;;;;;;;;;;5017183;28;20133;-85
2023/01/26 02:53:40;;;;;;;33.90;11.45;;;;;;;;;;5017067;28;20052;-86
2023/01/26 02:56:07;;;;;;;29.50;10.48;;;;;;;;;;5017896;28;20133;-85
2023/01/26 02:58:34;;;;;;;28.58;11.38;;;;;;;;;;5017197;28;20129;-85
2023/01/26 03:01:01;;;;;;;31.83;11.10;;;;;;;;;;5017624;28;20181;-85
2023/01/26 03:03:40;;;;;;;30.73;10.43;;;;;;;;;;5015638;28;20046;-85
2023/01/26 03:06:08;;;;;;;32.00;11.32;;;;;;;;;;5016878;28;20046;-84
2023/01/26 03:08:34;;;;;;;27.55;9.77;;;;;;;;;;5016895;28;20075;-85
2023/01/26 03:11:01;;;;;;;27.52;11.90;;;;;;;;;;5017056;28;20046;-85
2023/01/26 03:13:29;;;;;;;32.65;11.55;;;;;;;;;;5015795;28;20046;-85
2023/01/26 03:15:55;;;;;;;32.55;11.05;;;;;;;;;;5016322;28;20100;-85
2023/01/26 03:29:26;;;;;;;32.28;11.48;;;;;;;;;;5015781;28;20057;-85
2023/01/26 03:31:53;;;;;;;30.20;11.10;;;;;;;;;;5016563;28;20084;-83
2023/01/26 03:34:20;;;;;;;34.95;13.18;;;;;;;;;;5016910;28;20632;-84
2023/01/26 03:36:48;;;;;;;30.90;11.40;;;;;;;;;;5017619;28;20484;-84
2023/01/26 03:58:22;;;;;;;31.35;11.60;;;;;;;;;;4999496;28;20061;-86
2023/01/26 04:00:50;;;;;;;35.30;11.25;;;;;;;;;;5018062;28;20073;-86
2023/01/26 04:08:47;;;;;;;26.00;9.77;;;;;;;;;;5000577;28;20417;-85
2023/01/26 04:11:14;;;;;;;26.20;9.90;;;;;;;;;;5017617;28;20050;-84
2023/01/26 04:21:55;;;;;;;28.65;10.82;;;;;;;;;;4996745;28;20065;-85
2023/01/26 04:24:23;;;;;;;23.92;9.70;;;;;;;;;;5009056;28;20423;-85
2023/01/26 04:26:49;;;;;;;27.20;9.98;;;;;;;;;;5017788;28;20049;-85
2023/01/26 04:29:16;;;;;;;28.17;10.35;;;;;;;;;;5016658;28;20141;-84
2023/01/26 04:31:44;;;;;;;26.38;9.38;;;;;;;;;;5016223;28;20088;-85
2023/01/26 04:34:14;;;;;;;30.20;11.77;;;;;;;;;;5016485;28;20477;-86
2023/01/26 04:36:42;;;;;;;31.80;10.82;;;;;;;;;;5016621;28;20042;-85
2023/01/26 04:39:09;;;;;;;30.48;11.02;;;;;;;;;;5017370;28;20056;-84
2023/01/26 04:41:36;;;;;;;32.03;13.05;;;;;;;;;;5026285;28;20038;-85
2023/01/26 04:44:04;;;;;;;29.58;10.43;;;;;;;;;;5035542;28;20104;-84
2023/01/26 04:46:32;;;;;;;28.73;10.23;;;;;;;;;;5035802;28;20093;-84
2023/01/26 04:49:00;;;;;;;30.77;10.88;;;;;;;;;;5035483;28;20109;-85
2023/01/26 04:51:27;;;;;;;29.98;11.82;;;;;;;;;;5033856;28;20489;-85
2023/01/26 04:53:54;;;;;;;32.88;12.85;;;;;;;;;;5035815;28;20068;-85
2023/01/26 04:56:24;;;;;;;34.75;12.30;;;;;;;;;;5035992;28;20057;-84
2023/01/26 04:58:51;;;;;;;31.37;11.07;;;;;;;;;;5035545;28;20058;-85
2023/01/26 05:01:17;;;;;;;34.17;10.65;;;;;;;;;;5035709;28;20050;-84
2023/01/26 05:03:44;;;;;;;31.40;12.20;;;;;;;;;;5035715;28;20050;-85
2023/01/26 05:06:12;;;;;;;30.65;10.02;;;;;;;;;;5036155;28;20079;-84
2023/01/26 05:08:39;;;;;;;31.67;11.30;;;;;;;;;;5035972;28;20042;-86
2023/01/26 05:11:06;;;;;;;28.95;11.27;;;;;;;;;;5036406;28;20050;-85
2023/01/26 05:13:34;;;;;;;32.58;12.00;;;;;;;;;;5034466;28;20053;-84
2023/01/26 05:16:01;;;;;;;34.58;12.57;;;;;;;;;;5034456;28;20064;-84
2023/01/26 05:18:27;;;;;;;31.15;11.40;;;;;;;;;;5033605;28;20073;-85
2023/01/26 05:20:54;;;;;;;31.50;10.98;;;;;;;;;;5033037;28;20079;-85
2023/01/26 05:23:22;;;;;;;31.00;11.32;;;;;;;;;;5031724;28;20053;-85
2023/01/26 05:25:49;;;;;;;32.95;12.55;;;;;;;;;;5031800;28;20054;-85
2023/01/26 05:28:18;;;;;;;33.00;10.98;;;;;;;;;;5027780;28;20065;-86
2023/01/26 05:30:44;;;;;;;31.25;11.43;;;;;;;;;;5031163;28;20054;-85
2023/01/26 05:33:11;;;;;;;33.72;12.35;;;;;;;;;;5030312;28;20057;-85
2023/01/26 05:35:38;;;;;;;29.33;11.10;;;;;;;;;;5025875;28;20074;-86
2023/01/26 05:38:05;;;;;;;36.20;11.73;;;;;;;;;;5027007;28;20077;-85
2023/01/26 05:40:33;;;;;;;36.22;12.63;;;;;;;;;;5027913;28;20050;-85
2023/01/26 05:43:00;;;;;;;32.25;11.85;;;;;;;;;;5020677;28;20046;-84
2023/01/26 05:45:27;;;;;;;34.15;12.35;;;;;;;;;;5017581;28;20049;-86
2023/01/26 05:47:53;;;;;;;29.50;11.00;;;;;;;;;;5021963;28;20050;-84
2023/01/26 05:50:20;;;;;;;36.75;12.48;;;;;;;;;;5029960;28;20046;-84
2023/01/26 05:52:48;;;;;;;30.17;12.38;;;;;;;;;;5025185;28;20057;-86
2023/01/26 05:55:15;;;;;;;32.55;12.70;;;;;;;;;;5022704;28;20050;-85
2023/01/26 05:57:43;;;;;;;30.45;11.43;;;;;;;;;;5024887;28;20063;-81
2023/01/26 06:00:12;;;;;;;34.53;12.05;;;;;;;;;;5030348;28;20141;-84
2023/01/26 06:02:39;;;;;;;32.67;12.20;;;;;;;;;;5022345;28;20078;-86
2023/01/26 06:05:07;;;;;;;34.10;11.15;;;;;;;;;;5015589;28;20050;-86
2023/01/26 06:07:34;;;;;;;34.03;12.68;;;;;;;;;;5016475;28;20050;-86
2023/01/26 06:10:01;;;;;;;37.33;11.65;;;;;;;;;;5016728;28;20104;-86
2023/01/26 06:12:30;;;;;;;32.95;13.05;;;;;;;;;;5017813;28;20046;-86
2023/01/26 06:14:58;;;;;;;33.35;11.95;;;;;;;;;;5015498;28;20046;-86
2023/01/26 06:17:25;;;;;;;32.75;11.98;;;;;;;;;;5015819;28;20065;-87
2023/01/26 06:19:51;;;;;;;30.73;10.85;;;;;;;;;;5016532;28;20061;-86
2023/01/26 06:22:19;;;;;;;31.60;11.07;;;;;;;;;;4996474;28;20111;-86
2023/01/26 06:24:45;;;;;;;30.38;11.95;;;;;;;;;;4996374;28;20081;-86
2023/01/26 06:27:13;;;;;;;29.15;10.07;;;;;;;;;;5015576;28;20050;-86
2023/01/26 06:29:40;;;;;;;30.60;11.25;;;;;;;;;;5018548;28;20046;-86
2023/01/26 06:32:10;;;;;;;31.50;10.77;;;;;;;;;;5016858;28;20049;-85
2023/01/26 06:34:36;;;;;;;29.17;11.57;;;;;;;;;;5017285;28;20129;-86
2023/01/26 06:37:04;;;;;;;29.25;12.07;;;;;;;;;;5017149;28;20060;-86
2023/01/26 06:39:30;;;;;;;26.05;10.55;;;;;;;;;;5022739;28;20053;-86
2023/01/26 06:41:57;;;;;;;33.58;11.57;;;;;;;;;;5022012;28;20444;-84
2023/01/26 06:44:24;;;;;;;29.75;11.93;;;;;;;;;;5019232;28;20054;-85
2023/01/26 06:46:51;;;;;;;31.98;11.65;;;;;;;;;;5018469;28;20100;-86
2023/01/26 06:49:19;;;;;;;35.90;11.90;;;;;;;;;;5018684;28;20097;-84
2023/01/26 06:51:58;;;;;;;35.17;13.07;;;;;;;;;;5016298;28;20103;-84
2023/01/26 06:54:25;;;;;;;31.58;10.57;;;;;;;;;;5018430;28;20132;-85
2023/01/26 06:56:52;;;;;;;25.00;9.45;;;;;;;;;;5023545;28;20042;-83
2023/01/26 06:59:18;;;;;;;26.40;12.52;;;;;;;;;;5028838;22;20112;-77
2023/01/26 07:01:48;;;;;;;33.53;10.25;;;;;;;;;;5010931;28;20056;-77
2023/01/26 07:04:15;;;;;;;29.73;10.95;;;;;;;;;;4993598;28;20058;-78
2023/01/26 07:06:43;;;;;;;26.35;10.18;;;;;;;;;;4977613;28;20509;-79
2023/01/26 07:09:10;;;;;;;30.33;11.57;;;;;;;;;;4976274;28;20057;-77
2023/01/26 07:11:37;;;;;;;34.88;11.60;;;;;;;;;;4976443;28;20050;-78
2023/01/26 07:14:04;;;;;;;34.42;12.63;;;;;;;;;;4976728;28;20085;-78
2023/01/26 07:16:30;;;;;;;28.38;10.63;;;;;;;;;;4976751;28;20129;-77
2023/01/26 07:18:57;;;;;;;27.52;11.10;;;;;;;;;;4989192;28;20042;-78
2023/01/26 07:21:23;;;;;;;29.52;11.13;;;;;;;;;;4976609;28;20050;-77
2023/01/26 07:23:52;;;;;;;26.48;10.15;;;;;;;;;;4977106;28;20053;-77
2023/01/26 07:26:20;;;;;;;25.98;9.75;;;;;;;;;;4976629;28;20051;-76
2023/01/26 07:28:46;;;;;;;27.42;10.30;;;;;;;;;;4976505;28;20046;-79
2023/01/26 07:31:14;;;;;;;30.02;12.52;;;;;;;;;;4998709;28;20104;-77
2023/01/26 07:33:49;;;;;;;31.65;13.23;;;;;;;;;;4998983;28;20050;-77
2023/01/26 07:36:16;;;;;;;27.67;11.40;;;;;;;;;;5003544;28;20050;-77
2023/01/26 07:38:43;;;;;;;29.30;11.15;;;;;;;;;;4989121;28;20042;-77
2023/01/26 07:44:49;;;;;;;30.50;10.45;;;;;;;;;;4980083;28;20081;-77
2023/01/26 07:47:16;;;;;;;26.17;10.20;;;;;;;;;;4977695;28;20043;-79
2023/01/26 07:49:42;;;;;;;30.13;10.35;;;;;;;;;;4978363;28;20074;-77
2023/01/26 07:52:09;;;;;;;32.40;11.55;;;;;;;;;;4989914;28;20531;-77
2023/01/26 07:54:36;;;;;;;29.52;11.52;;;;;;;;;;4982128;28;20130;-76
2023/01/26 07:57:05;;;;;;;27.15;11.60;;;;;;;;;;4987972;28;20057;-77
2023/01/26 07:59:32;;;;;;;26.70;11.32;;;;;;;;;;4987588;28;20050;-77
2023/01/26 08:02:00;;;;;;;30.25;11.48;;;;;;;;;;4978900;28;20067;-78
2023/01/26 08:04:27;;;;;;;28.60;11.15;;;;;;;;;;4977049;28;20074;-77
2023/01/26 08:06:54;;;;;;;28.85;10.82;;;;;;;;;;4996629;28;20129;-78
2023/01/26 08:09:20;;;;;;;29.48;11.05;;;;;;;;;;4997444;28;20081;-76
2023/01/26 08:11:47;;;;;;;25.00;9.45;;;;;;;;;;4996282;28;20042;-78
2023/01/26 08:14:14;;;;;;;30.45;10.35;;;;;;;;;;4998332;28;20085;-76
2023/01/26 08:16:40;;;;;;;30.67;10.63;;;;;;;;;;4994157;28;20133;-76
2023/01/26 08:19:08;;;;;;;29.13;9.90;;;;;;;;;;4992757;28;20638;-78
2023/01/26 08:21:35;;;;;;;29.25;11.38;;;;;;;;;;4994226;28;20042;-78
2023/01/26 08:24:02;;;;;;;29.58;10.65;;;;;;;;;;4994461;28;20488;-78
2023/01/26 08:26:29;;;;;;;35.08;12.02;;;;;;;;;;4994221;28;20046;-75
2023/01/26 08:28:55;;;;;;;26.67;10.60;;;;;;;;;;4994318;28;20497;-77
2023/01/26 08:31:24;;;;;;;26.35;10.80;;;;;;;;;;4994277;28;20053;-77
2023/01/26 08:33:53;;;;;;;36.65;11.75;;;;;;;;;;4989798;28;20512;-77
2023/01/26 08:36:21;;;;;;;35.28;12.80;;;;;;;;;;4992491;28;20073;-78
2023/01/26 08:38:48;;;;;;;25.75;9.75;;;;;;;;;;4992548;28;20129;-77
2023/01/26 08:41:15;;;;;;;26.95;9.68;;;;;;;;;;4992226;28;20047;-77
2023/01/26 08:43:42;;;;;;;29.33;10.38;;;;;;;;;;4992365;28;20141;-77
2023/01/26 08:46:09;;;;;;;28.25;10.35;;;;;;;;;;4992340;28;20156;-76
2023/01/26 08:48:36;;;;;;;28.23;10.75;;;;;;;;;;4992690;28;20047;-77
2023/01/26 08:51:05;;;;;;;27.83;9.60;;;;;;;;;;4992812;28;20046;-76
2023/01/26 08:53:36;;;;;;;28.20;10.43;;;;;;;;;;4976142;28;20053;-76
2023/01/26 08:56:02;;;;;;;;;;;;;;;;;;4974411;28;20054;-77
2023/01/26 08:58:29;;;;;;;28.55;9.48;;;;;;;;;;4972946;28;19922;-76
2023/01/26 09:00:56;;;;;;;29.70;10.82;;;;;;;;;;4974369;28;20047;-79
2023/01/26 09:03:23;;;;;;;26.13;10.07;;;;;;;;;;4982672;28;20437;-76
2023/01/26 09:05:49;;;;;;;27.75;9.43;;;;;;;;;;4981754;28;20375;-80
2023/01/26 09:08:16;;;;;;;30.88;10.35;;;;;;;;;;4991835;28;20090;-76
2023/01/26 09:10:44;;;;;;;26.50;10.07;;;;;;;;;;4978057;28;20051;-76
2023/01/26 09:13:11;;;;;;;26.27;9.73;;;;;;;;;;4975943;28;20039;-78
2023/01/26 09:15:38;;;;;;;30.77;9.70;;;;;;;;;;4976091;28;20129;-80
2023/01/26 09:18:05;;;;;;;26.67;9.75;;;;;;;;;;4994461;28;20137;-78
2023/01/26 09:20:31;;;;;;;28.67;9.70;;;;;;;;;;4995781;28;20085;-77
2023/01/26 09:22:58;;;;;;;29.05;10.23;;;;;;;;;;4977824;28;20058;-79
2023/01/26 09:25:25;;;;;;;31.25;11.20;;;;;;;;;;4977469;28;20585;-79
2023/01/26 09:27:53;;;;;;;32.33;11.07;;;;;;;;;;4992298;28;20141;-78
2023/01/26 09:30:19;;;;;;;30.42;11.02;;;;;;;;;;4996107;28;20046;-77
2023/01/26 09:32:46;;;;;;;28.70;10.90;;;;;;;;;;4990209;28;20130;-78
2023/01/26 09:35:13;;;;;;;27.85;11.23;;;;;;;;;;4996616;28;20050;-78
2023/01/26 09:37:39;;;;;;;28.15;10.43;;;;;;;;;;4981998;28;20058;-78
2023/01/26 09:40:11;;;;;;;28.10;10.27;;;;;;;;;;4990103;28;20052;-78
2023/01/26 09:42:48;;;;;;;30.63;10.68;;;;;;;;;;4993154;28;20124;-79
2023/01/26 09:45:24;;;;;;;34.75;12.10;;;;;;;;;;4975533;28;20144;-78
2023/01/26 09:48:02;;;;;;;29.55;11.40;;;;;;;;;;4980314;28;20155;-79
2023/01/26 09:50:34;;;;;;;29.05;10.45;;;;;;;;;;4974589;28;20047;-78
2023/01/26 09:53:06;;;;;;;23.75;9.82;;;;;;;;;;5000194;28;20093;-76
2023/01/26 09:55:33;;;;;;;29.95;10.40;;;;;;;;;;5001107;28;20066;-76
2023/01/26 09:58:03;;;;;;;33.95;13.25;;;;;;;;;;4984574;28;20050;-78
2023/01/26 10:00:35;;;;;;;33.92;13.95;;;;;;;;;;4979431;28;20050;-77
2023/01/26 10:03:15;;;;;;;28.60;11.52;;;;;;;;;;4977272;28;20486;-77
2023/01/26 10:05:47;;;;;;;33.38;13.48;;;;;;;;;;4983121;28;20108;-78
2023/01/26 10:08:18;;;;;;;30.08;11.23;;;;;;;;;;4976216;28;20114;-77
2023/01/26 10:10:49;;;;;;;32.30;11.40;;;;;;;;;;4972833;28;20077;-76
2023/01/26 10:13:18;;;;;;;25.58;10.27;;;;;;;;;;4974224;28;20197;-79
2023/01/26 10:15:50;;;;;;;26.08;10.15;;;;;;;;;;4975346;28;20066;-77
2023/01/26 10:18:20;;;;;;;31.52;12.02;;;;;;;;;;4977994;28;20102;-76
2023/01/26 10:20:51;;;;;;;24.08;9.93;;;;;;;;;;4991950;28;20593;-79
2023/01/26 10:23:22;;;;;;;27.52;10.57;;;;;;;;;;4978355;28;20047;-77
2023/01/26 10:25:50;;;;;;;33.20;11.20;;;;;;;;;;4974461;28;20058;-80
2023/01/26 10:28:22;;;;;;;33.13;11.10;;;;;;;;;;4976390;28;20043;-81
2023/01/26 10:30:50;;;;;;;30.08;11.70;;;;;;;;;;4994221;28;20053;-80
2023/01/26 10:33:20;;;;;;;27.23;10.25;;;;;;;;;;4994263;28;20057;-81
2023/01/26 10:35:47;;;;;;;31.80;11.65;;;;;;;;;;4985804;28;20046;-78
2023/01/26 10:38:42;;;;;;;27.13;10.18;;;;;;;;;;4974169;28;20051;-77
2023/01/26 10:41:28;;;;;;;31.95;9.82;;;;;;;;;;4986162;28;20046;-79
2023/01/26 10:43:57;;;;;;;26.48;10.38;;;;;;;;;;5002436;28;20041;-78
2023/01/26 10:46:30;;;;;;;32.58;10.90;;;;;;;;;;5010626;28;20057;-80
2023/01/26 10:48:59;;;;;;;29.58;11.00;;;;;;;;;;5006205;28;20076;-77
2023/01/26 10:51:29;;;;;;;28.63;10.77;;;;;;;;;;4988221;28;20066;-78
2023/01/26 10:54:27;;;;;;;29.47;10.90;;;;;;;;;;4989212;28;20042;-80
2023/01/26 10:56:55;;;;;;;28.60;9.85;;;;;;;;;;4919360;29;20052;-78
2023/01/26 10:59:32;;;;;;;28.30;10.93;;;;;;;;;;4965361;28;20050;-78
2023/01/26 11:02:16;;;;;;;33.28;13.38;;;;;;;;;;4996842;28;20050;-79
2023/01/26 11:05:01;;;;;;;26.08;11.07;;;;;;;;;;5006229;28;20121;-74
2023/01/26 11:07:33;;;;;;;23.33;9.02;;;;;;;;;;4995211;28;20054;-77
2023/01/26 11:10:20;;;;;;;27.73;8.50;;;;;;;;;;5011098;28;20077;-77
2023/01/26 11:12:47;;;;;;;32.50;10.43;;;;;;;;;;4980890;28;20129;-75
2023/01/26 11:15:18;;;;;;;26.05;10.30;;;;;;;;;;5019441;28;20512;-78
2023/01/26 11:17:54;;;;;;;30.50;10.25;;;;;;;;;;4982358;28;20138;-78
2023/01/26 11:20:41;;;;;;;25.70;10.30;;;;;;;;;;4981071;28;20086;-79
2023/01/26 11:23:15;;;;;;;26.75;10.98;;;;;;;;;;4981183;28;20057;-78
2023/01/26 11:25:53;;;;;;;29.60;9.52;;;;;;;;;;4991900;28;20049;-77
2023/01/26 11:28:36;;;;;;;24.83;9.23;;;;;;;;;;4988822;28;20048;-76
2023/01/26 11:31:16;;;;;;;28.85;9.73;;;;;;;;;;5001172;28;20440;-78
2023/01/26 11:33:55;;;;;;;27.13;9.45;;;;;;;;;;5018142;28;20077;-77
2023/01/26 11:36:31;;;;;;;30.65;9.68;;;;;;;;;;4992284;28;20162;-76
2023/01/26 11:39:04;;;;;;;32.20;11.27;;;;;;;;;;4992850;28;20046;-78
2023/01/26 11:41:45;;;;;;;29.63;9.68;;;;;;;;;;4989197;28;20587;-78
2023/01/26 11:44:29;;;;;;;28.33;10.68;;;;;;;;;;4976050;28;20047;-78
2023/01/26 11:47:04;;;;;;;27.15;10.05;;;;;;;;;;4988337;28;20048;-78
2023/01/26 11:50:03;;;;;;;29.85;10.77;;;;;;;;;;4991055;28;20581;-77
2023/01/26 11:52:38;;;;;;;31.65;11.68;;;;;;;;;;4964299;28;20050;-77
2023/01/26 11:55:19;;;;;;;32.20;10.48;;;;;;;;;;5006174;28;20138;-78
2023/01/26 11:58:00;;;;;;;28.83;10.07;;;;;;;;;;4989791;28;20043;-78
2023/01/26 12:00:38;;;;;;;31.13;10.82;;;;;;;;;;4993262;28;20446;-79
2023/01/26 12:03:06;;;;;;;28.98;10.82;;;;;;;;;;5008972;28;20129;-76
2023/01/26 12:05:44;;;;;;;30.35;10.20;;;;;;;;;;5012508;28;20555;-77
2023/01/26 12:08:18;;;;;;;34.28;10.30;;;;;;;;;;5012726;28;20119;-77
2023/01/26 12:10:50;;;;;;;26.63;8.85;;;;;;;;;;4984344;28;20391;-79
2023/01/26 12:13:27;;;;;;;30.17;10.88;;;;;;;;;;4972951;28;20051;-77
2023/01/26 12:16:00;;;;;;;24.35;9.82;;;;;;;;;;4973644;28;20122;-77
2023/01/26 12:18:32;;;;;;;24.35;8.75;;;;;;;;;;4983621;28;20532;-79
2023/01/26 12:21:05;;;;;;;37.10;11.40;;;;;;;;;;4987934;28;20042;-79
2023/01/26 12:23:46;;;;;;;30.05;9.85;;;;;;;;;;4983833;28;20465;-76
2023/01/26 12:26:15;;;;;;;30.63;10.98;;;;;;;;;;4992785;28;20090;-76
2023/01/26 12:28:47;;;;;;;31.35;10.77;;;;;;;;;;4993265;28;20133;-78
2023/01/26 12:31:19;;;;;;;35.67;11.88;;;;;;;;;;4993028;28;20177;-78
2023/01/26 12:34:29;;;;;;;32.28;11.88;;;;;;;;;;4992361;28;20050;-78
2023/01/26 12:37:14;;;;;;;36.80;11.32;;;;;;;;;;4972197;28;20713;-78
2023/01/26 12:39:45;;;;;;;37.17;11.70;;;;;;;;;;4988381;28;20046;-77
2023/01/26 12:42:20;;;;;;;32.40;9.90;;;;;;;;;;4993002;28;20077;-78
2023/01/26 12:44:53;;;;;;;33.05;11.00;;;;;;;;;;4992332;28;20133;-77
2023/01/26 12:47:30;;;;;;;33.75;11.63;;;;;;;;;;4997222;28;20058;-78
2023/01/26 12:50:02;;;;;;;33.83;10.65;;;;;;;;;;4990385;28;20047;-77
2023/01/26 12:52:38;;;;;;;32.47;10.45;;;;;;;;;;4973948;28;20466;-77
2023/01/26 12:55:12;;;;;;;30.30;10.95;;;;;;;;;;4981119;28;20145;-76
2023/01/26 12:57:44;;;;;;;33.58;11.15;;;;;;;;;;4992155;28;20121;-77
2023/01/26 13:00:21;;;;;;;28.58;9.90;;;;;;;;;;4991727;28;20050;-77
2023/01/26 13:02:51;;;;;;;29.80;9.50;;;;;;;;;;4990790;28;20054;-78
2023/01/26 13:05:29;;;;;;;26.23;9.67;;;;;;;;;;4992271;28;20054;-78
2023/01/26 13:07:57;;;;;;;29.65;10.90;;;;;;;;;;4991081;28;20060;-77
2023/01/26 13:10:44;;;;;;;29.45;10.23;;;;;;;;;;4989623;28;20043;-78
2023/01/26 13:13:27;;;;;;;31.98;10.07;;;;;;;;;;4976736;28;20046;-83
2023/01/26 13:16:28;;;;;;;26.73;10.60;;;;;;;;;;4986092;28;20082;-81
2023/01/26 13:18:58;;;;;;;28.80;10.13;;;;;;;;;;4987020;28;20057;-77
2023/01/26 13:21:29;;;;;;;29.85;10.77;;;;;;;;;;4991985;28;20057;-76
2023/01/26 13:23:57;;;;;;;23.15;10.43;;;;;;;;;;4988338;28;20133;-78
2023/01/26 13:26:49;;;;;;;30.05;9.82;;;;;;;;;;4988730;28;20046;-76
2023/01/26 13:29:30;;;;;;;25.88;9.70;;;;;;;;;;4985378;28;20054;-77
2023/01/26 13:31:58;;;;;;;;;;;;;;;;;;5016949;22;20106;-58
2023/01/26 13:34:31;;;;;;;27.55;9.10;;;;;;;;;;5022454;28;20388;-60
2023/01/26 13:37:06;;;;;;;30.92;11.15;;;;;;;;;;5019959;28;20658;-58
2023/01/26 13:39:37;;;;;;;26.65;9.57;;;;;;;;;;5049750;28;20470;-59
2023/01/26 13:42:16;;;;;;;26.50;9.98;;;;;;;;;;5042586;28;20038;-59
2023/01/26 13:44:51;;;;;;;31.38;11.50;;;;;;;;;;5030504;28;20054;-59
2023/01/26 13:47:23;;;;;;;34.45;12.30;;;;;;;;;;5041894;28;20115;-60
2023/01/26 13:49:51;;;;;;;33.05;11.32;;;;;;;;;;5030699;28;20057;-57
2023/01/26 13:52:20;;;;;;;28.80;10.63;;;;;;;;;;5025865;28;20042;-59
2023/01/26 13:54:52;;;;;;;29.77;10.68;;;;;;;;;;5032134;28;20120;-55
2023/01/26 13:57:25;;;;;;;28.70;10.75;;;;;;;;;;5045304;28;20645;-57
2023/01/26 13:59:53;;;;;;;32.15;11.57;;;;;;;;;;5029863;28;20057;-59
2023/01/26 14:02:23;;;;;;;32.95;11.05;;;;;;;;;;5014082;28;20045;-56
2023/01/26 14:04:54;;;;;;;33.72;12.18;;;;;;;;;;5045054;28;20046;-59
2023/01/26 14:07:26;;;;;;;34.33;11.70;;;;;;;;;;5030607;28;20053;-59
2023/01/26 14:09:58;;;;;;;31.73;11.32;;;;;;;;;;5030260;28;20054;-59
2023/01/26 14:12:27;;;;;;;34.08;11.13;;;;;;;;;;5018477;28;20067;-60
2023/01/26 14:14:57;;;;;;;33.55;11.63;;;;;;;;;;5030420;28;20053;-59
2023/01/26 14:17:27;;;;;;;31.45;9.80;;;;;;;;;;5032001;28;20045;-60
2023/01/26 14:19:54;;;;;;;30.45;11.68;;;;;;;;;;5035903;28;20107;-60
2023/01/26 14:22:20;;;;;;;31.50;11.02;;;;;;;;;;5033714;28;20473;-60
2023/01/26 14:24:49;;;;;;;28.40;9.82;;;;;;;;;;5050518;28;20045;-62
2023/01/26 14:27:30;;;;;;;28.73;10.05;;;;;;;;;;5028412;28;20049;-62
2023/01/26 14:29:57;;;;;;;31.50;10.15;;;;;;;;;;5023740;28;20108;-62
2023/01/26 14:32:28;;;;;;;27.65;10.20;;;;;;;;;;5033605;28;20045;-58
2023/01/26 14:34:57;;;;;;;34.40;11.77;;;;;;;;;;5028042;28;20222;-60
2023/01/26 14:37:25;;;;;;;28.70;10.25;;;;;;;;;;5031412;28;20053;-60
2023/01/26 14:40:10;;;;;;;34.13;12.48;;;;;;;;;;5030944;28;20045;-59
2023/01/26 14:42:39;;;;;;;36.65;12.93;;;;;;;;;;5033434;28;20057;-60
2023/01/26 14:45:12;;;;;;;38.45;13.48;;;;;;;;;;5032588;28;20053;-60
2023/01/26 14:47:40;;;;;;;32.72;11.35;;;;;;;;;;5013644;28;20050;-58
2023/01/26 14:50:12;;;;;;;29.67;10.65;;;;;;;;;;5015598;28;20058;-61
2023/01/26 14:52:44;;;;;;;35.33;11.10;;;;;;;;;;5013400;28;20072;-61
2023/01/26 14:55:17;;;;;;;33.20;11.05;;;;;;;;;;5019033;28;20049;-61
2023/01/26 14:57:45;;;;;;;30.25;10.23;;;;;;;;;;5026811;28;20057;-58
2023/01/26 15:00:24;;;;;;;30.20;9.60;;;;;;;;;;5021846;28;20120;-59
2023/01/26 15:02:54;;;;;;;38.53;11.95;;;;;;;;;;5019641;28;20491;-60
2023/01/26 15:05:23;;;;;;;26.83;11.45;;;;;;;;;;5032627;28;20045;-61
2023/01/26 15:07:54;;;;;;;29.33;11.00;;;;;;;;;;5017983;28;20057;-59
2023/01/26 15:10:35;;;;;;;30.42;10.85;;;;;;;;;;5020730;28;20049;-61
2023/01/26 15:13:06;;;;;;;34.50;10.75;;;;;;;;;;5035934;28;20053;-61
2023/01/26 15:15:37;;;;;;;33.00;11.23;;;;;;;;;;5036505;28;20100;-62
2023/01/26 15:18:16;;;;;;;35.85;11.68;;;;;;;;;;5040459;28;20457;-61
2023/01/26 15:20:45;;;;;;;29.75;10.95;;;;;;;;;;5031950;28;20091;-61
2023/01/26 15:23:27;;;;;;;30.23;9.70;;;;;;;;;;5046990;28;20153;-61
2023/01/26 15:25:55;;;;;;;24.25;8.68;;;;;;;;;;5028833;28;20448;-61
2023/01/26 15:28:25;;;;;;;22.77;8.43;;;;;;;;;;5031852;28;20391;-58
2023/01/26 15:30:55;;;;;;;24.48;8.80;;;;;;;;;;5024599;28;20142;-69
2023/01/26 15:33:41;;;;;;;23.63;8.15;;;;;;;;;;5039708;28;20135;-70